Gant Flair — D5IK8 — position and weather

sailwx.info

Track history (hours):
 
Tides and Currents Weather Stations Pressure Air Temp Water Temp Dewpoint Dewpoint Depression Visibility Wind Speed Wind Dir Waves Ship Positions

Gant Flair

Last reported at 2017-Nov-25 09:25 UTC. Time now 2017-Nov-25 09:48 UTC.
Position N 37°12' E 005°35'.

Length 169 m; draft 8.4 m.

Type: Cargo ship. MMSI: 636016926.

Date/timePositionNaut miles runAvg speedWind from/ knotsBaromVisibWave heightAir tempDewpointWater temp
2017-Nov-25 09:25N 37°12' E 005°35'613.8
2017-Nov-25 08:59N 37°12' E 005°27'913.6
2017-Nov-25 08:20N 37°11' E 005°16'413.2
2017-Nov-25 08:00N 37°11' E 005°11'813.4
2017-Nov-25 07:22N 37°11' E 005°00'5013.7
2017-Nov-25 03:44N 37°08' E 003°58'314.0
2017-Nov-25 03:29N 37°08' E 003°53'1813.8
2017-Nov-25 02:12N 37°05' E 003°32'313.9
2017-Nov-25 01:59N 37°05' E 003°28'713.8
2017-Nov-25 01:30N 37°04' E 003°20'714.0
2017-Nov-25 00:59N 37°02' E 003°10'814.0
2017-Nov-25 00:25N 37°01' E 003°01'814.0
2017-Nov-24 23:52N 36°60' E 002°51'513.7
2017-Nov-24 23:29N 36°59' E 002°45'613.6
2017-Nov-24 23:00N 36°58' E 002°37'713.4
2017-Nov-24 22:30N 36°57' E 002°28'713.2
2017-Nov-24 22:00N 36°56' E 002°20'713.4
2017-Nov-24 21:30N 36°54' E 002°12'813.7
2017-Nov-24 20:55N 36°53' E 002°02'613.8
2017-Nov-24 20:30N 36°52' E 001°55'713.4
2017-Nov-24 20:00N 36°52' E 001°47'813.5
2017-Nov-24 19:25N 36°50' E 001°37'913.3
2017-Nov-24 18:43N 36°49' E 001°25'313.1
2017-Nov-24 18:30N 36°49' E 001°22'613.1
2017-Nov-24 18:00N 36°48' E 001°14'713.3
2017-Nov-24 17:30N 36°47' E 001°06'713.5
2017-Nov-24 17:00N 36°46' E 000°57'713.6
2017-Nov-24 16:30N 36°45' E 000°49'713.6
2017-Nov-24 16:00N 36°44' E 000°41'713.6
2017-Nov-24 15:30N 36°43' E 000°32'713.5
2017-Nov-24 15:00N 36°41' E 000°24'713.3
2017-Nov-24 14:30N 36°40' E 000°16'713.3
2017-Nov-24 14:00N 36°39' E 000°08'713.4
2017-Nov-24 13:28N 36°38' W 000°01'1313.2
2017-Nov-24 12:29N 36°36' W 000°17'713.3
2017-Nov-24 11:56N 36°35' W 000°26'613.2
2017-Nov-24 11:30N 36°34' W 000°33'713.4
2017-Nov-24 11:00N 36°33' W 000°41'3713.4
2017-Nov-24 08:14N 36°27' W 001°27'313.4
2017-Nov-24 08:00N 36°27' W 001°31'18413.1
2017-Nov-23 17:58N 36°05' W 005°18'4 8.2
2017-Nov-23 17:27N 36°07' W 005°23'1 0.2
2017-Nov-23 14:08N 36°08' W 005°22'2 0.4
2017-Nov-23 07:58N 36°06' W 005°22'3 5.5
2017-Nov-23 07:27N 36°06' W 005°18'1 2.1
2017-Nov-23 06:59N 36°06' W 005°17'0 0.9
2017-Nov-23 06:30N 36°06' W 005°17'2 3.5
2017-Nov-23 06:00N 36°05' W 005°19'4 7.5
2017-Nov-23 05:31N 36°03' W 005°22'5 9.1
2017-Nov-23 05:01N 35°59' W 005°25'510.9
2017-Nov-23 04:30N 35°57' W 005°31'4311.2
2017-Nov-23 00:41N 35°53' W 006°24'310.9
2017-Nov-23 00:24N 35°53' W 006°28'511.1
2017-Nov-23 00:00N 35°53' W 006°33'611.4
2017-Nov-22 23:30N 35°53' W 006°40'611.7
2017-Nov-22 23:00N 35°52' W 006°47'611.6
2017-Nov-22 22:30N 35°52' W 006°54'611.5
2017-Nov-22 22:00N 35°51' W 007°01'811.6
2017-Nov-22 21:20N 35°51' W 007°11'411.5
2017-Nov-22 21:01N 35°51' W 007°16'2111.7
2017-Nov-22 19:14N 35°50' W 007°41'  
2017-Nov-19 21:38N 34°13' W 025°24'213.2
2017-Nov-19 21:29N 34°13' W 025°26'1813.3
2017-Nov-19 20:08N 34°10' W 025°47'  
Track history (hours):
 
Tides and Currents Weather Stations Pressure Air Temp Water Temp Dewpoint Dewpoint Depression Visibility Wind Speed Wind Dir Waves Ship Positions

Gant Flair

Last reported at 2017-Nov-25 09:25 UTC. Time now 2017-Nov-25 09:48 UTC.
Position N 37°12' E 005°35'.

Length 169 m; draft 8.4 m.

Type: Cargo ship. MMSI: 636016926.

Date/timePositionNaut miles runAvg speedWind from/ knotsBaromVisibWave heightAir tempDewpointWater temp
2017-Nov-25 09:25N 37°12' E 005°35'613.8
2017-Nov-25 08:59N 37°12' E 005°27'913.6
2017-Nov-25 08:20N 37°11' E 005°16'413.2
2017-Nov-25 08:00N 37°11' E 005°11'813.4
2017-Nov-25 07:22N 37°11' E 005°00'5013.7
2017-Nov-25 03:44N 37°08' E 003°58'314.0
2017-Nov-25 03:29N 37°08' E 003°53'1813.8
2017-Nov-25 02:12N 37°05' E 003°32'313.9
2017-Nov-25 01:59N 37°05' E 003°28'713.8
2017-Nov-25 01:30N 37°04' E 003°20'714.0
2017-Nov-25 00:59N 37°02' E 003°10'814.0
2017-Nov-25 00:25N 37°01' E 003°01'814.0
2017-Nov-24 23:52N 36°60' E 002°51'513.7
2017-Nov-24 23:29N 36°59' E 002°45'613.6
2017-Nov-24 23:00N 36°58' E 002°37'713.4
2017-Nov-24 22:30N 36°57' E 002°28'713.2
2017-Nov-24 22:00N 36°56' E 002°20'713.4
2017-Nov-24 21:30N 36°54' E 002°12'813.7
2017-Nov-24 20:55N 36°53' E 002°02'613.8
2017-Nov-24 20:30N 36°52' E 001°55'713.4
2017-Nov-24 20:00N 36°52' E 001°47'813.5
2017-Nov-24 19:25N 36°50' E 001°37'913.3
2017-Nov-24 18:43N 36°49' E 001°25'313.1
2017-Nov-24 18:30N 36°49' E 001°22'613.1
2017-Nov-24 18:00N 36°48' E 001°14'713.3
2017-Nov-24 17:30N 36°47' E 001°06'713.5
2017-Nov-24 17:00N 36°46' E 000°57'713.6
2017-Nov-24 16:30N 36°45' E 000°49'713.6
2017-Nov-24 16:00N 36°44' E 000°41'713.6
2017-Nov-24 15:30N 36°43' E 000°32'713.5
2017-Nov-24 15:00N 36°41' E 000°24'713.3
2017-Nov-24 14:30N 36°40' E 000°16'713.3
2017-Nov-24 14:00N 36°39' E 000°08'713.4
2017-Nov-24 13:28N 36°38' W 000°01'1313.2
2017-Nov-24 12:29N 36°36' W 000°17'713.3
2017-Nov-24 11:56N 36°35' W 000°26'613.2
2017-Nov-24 11:30N 36°34' W 000°33'713.4
2017-Nov-24 11:00N 36°33' W 000°41'3713.4
2017-Nov-24 08:14N 36°27' W 001°27'313.4
2017-Nov-24 08:00N 36°27' W 001°31'18413.1
2017-Nov-23 17:58N 36°05' W 005°18'4 8.2
2017-Nov-23 17:27N 36°07' W 005°23'1 0.2
2017-Nov-23 14:08N 36°08' W 005°22'2 0.4
2017-Nov-23 07:58N 36°06' W 005°22'3 5.5
2017-Nov-23 07:27N 36°06' W 005°18'1 2.1
2017-Nov-23 06:59N 36°06' W 005°17'0 0.9
2017-Nov-23 06:30N 36°06' W 005°17'2 3.5
2017-Nov-23 06:00N 36°05' W 005°19'4 7.5
2017-Nov-23 05:31N 36°03' W 005°22'5 9.1
2017-Nov-23 05:01N 35°59' W 005°25'510.9
2017-Nov-23 04:30N 35°57' W 005°31'4311.2
2017-Nov-23 00:41N 35°53' W 006°24'310.9
2017-Nov-23 00:24N 35°53' W 006°28'511.1
2017-Nov-23 00:00N 35°53' W 006°33'611.4
2017-Nov-22 23:30N 35°53' W 006°40'611.7
2017-Nov-22 23:00N 35°52' W 006°47'611.6
2017-Nov-22 22:30N 35°52' W 006°54'611.5
2017-Nov-22 22:00N 35°51' W 007°01'811.6
2017-Nov-22 21:20N 35°51' W 007°11'411.5
2017-Nov-22 21:01N 35°51' W 007°16'2111.7
2017-Nov-22 19:14N 35°50' W 007°41'  
2017-Nov-19 21:38N 34°13' W 025°24'213.2
2017-Nov-19 21:29N 34°13' W 025°26'1813.3
2017-Nov-19 20:08N 34°10' W 025°47'  

Dump ship's entire track history